sensor_id;sensor_type;location;lat;lon;timestamp;pressure;altitude;pressure_sealevel;temperature;humidity
2673;BME280;1346;51.558;6.996;2022-08-21T00:00:55;101179.41;;;19.01;100.00
2673;BME280;1346;51.558;6.996;2022-08-21T00:03:22;101175.59;;;18.96;100.00
2673;BME280;1346;51.558;6.996;2022-08-21T00:05:50;101180.78;;;18.91;100.00
2673;BME280;1346;51.558;6.996;2022-08-21T00:08:19;101182.00;;;18.88;100.00
2673;BME280;1346;51.558;6.996;2022-08-21T00:10:47;101170.72;;;18.85;100.00
2673;BME280;1346;51.558;6.996;2022-08-21T00:13:14;101166.50;;;18.82;100.00
2673;BME280;1346;51.558;6.996;2022-08-21T00:15:42;101155.19;;;18.79;100.00
2673;BME280;1346;51.558;6.996;2022-08-21T00:18:10;101153.06;;;18.74;100.00
2673;BME280;1346;51.558;6.996;2022-08-21T00:20:42;101154.69;;;18.69;100.00
2673;BME280;1346;51.558;6.996;2022-08-21T00:23:10;101156.13;;;18.65;100.00
2673;BME280;1346;51.558;6.996;2022-08-21T00:25:38;101155.81;;;18.60;100.00
2673;BME280;1346;51.558;6.996;2022-08-21T00:28:05;101149.13;;;18.56;100.00
2673;BME280;1346;51.558;6.996;2022-08-21T00:30:33;101150.75;;;18.50;100.00
2673;BME280;1346;51.558;6.996;2022-08-21T00:33:02;101148.22;;;18.49;100.00
2673;BME280;1346;51.558;6.996;2022-08-21T00:35:38;101146.09;;;18.44;100.00
2673;BME280;1346;51.558;6.996;2022-08-21T00:38:07;101150.66;;;18.44;100.00
2673;BME280;1346;51.558;6.996;2022-08-21T00:40:37;101145.63;;;18.41;100.00
2673;BME280;1346;51.558;6.996;2022-08-21T00:43:09;101153.94;;;18.39;100.00
2673;BME280;1346;51.558;6.996;2022-08-21T00:45:36;101149.72;;;18.37;100.00
2673;BME280;1346;51.558;6.996;2022-08-21T00:48:04;101153.03;;;18.32;100.00
2673;BME280;1346;51.558;6.996;2022-08-21T00:50:38;101150.06;;;18.27;100.00
2673;BME280;1346;51.558;6.996;2022-08-21T00:53:07;101156.03;;;18.23;100.00
2673;BME280;1346;51.558;6.996;2022-08-21T00:55:34;101150.72;;;18.15;100.00
2673;BME280;1346;51.558;6.996;2022-08-21T00:58:05;101147.94;;;18.08;100.00
2673;BME280;1346;51.558;6.996;2022-08-21T01:00:37;101148.06;;;18.00;100.00
2673;BME280;1346;51.558;6.996;2022-08-21T01:03:10;101146.28;;;17.92;100.00
2673;BME280;1346;51.558;6.996;2022-08-21T01:05:40;101144.56;;;17.85;100.00
2673;BME280;1346;51.558;6.996;2022-08-21T01:08:08;101142.09;;;17.75;100.00
2673;BME280;1346;51.558;6.996;2022-08-21T01:10:36;101146.78;;;17.67;100.00
2673;BME280;1346;51.558;6.996;2022-08-21T01:13:05;101149.78;;;17.57;100.00
2673;BME280;1346;51.558;6.996;2022-08-21T01:15:38;101149.06;;;17.49;100.00
2673;BME280;1346;51.558;6.996;2022-08-21T01:18:08;101148.28;;;17.40;100.00
2673;BME280;1346;51.558;6.996;2022-08-21T01:20:41;101156.31;;;17.34;100.00
2673;BME280;1346;51.558;6.996;2022-08-21T01:23:09;101154.13;;;17.29;100.00
2673;BME280;1346;51.558;6.996;2022-08-21T01:25:36;101158.44;;;17.24;100.00
2673;BME280;1346;51.558;6.996;2022-08-21T01:28:13;101159.16;;;17.18;100.00
2673;BME280;1346;51.558;6.996;2022-08-21T01:30:43;101157.41;;;17.10;100.00
2673;BME280;1346;51.558;6.996;2022-08-21T01:33:10;101156.25;;;17.05;100.00
2673;BME280;1346;51.558;6.996;2022-08-21T01:35:37;101162.03;;;17.02;100.00
2673;BME280;1346;51.558;6.996;2022-08-21T01:38:05;101160.72;;;16.98;100.00
2673;BME280;1346;51.558;6.996;2022-08-21T01:40:33;101162.94;;;16.94;100.00
2673;BME280;1346;51.558;6.996;2022-08-21T01:43:00;101168.06;;;16.89;100.00
2673;BME280;1346;51.558;6.996;2022-08-21T01:45:28;101159.66;;;16.84;100.00
2673;BME280;1346;51.558;6.996;2022-08-21T01:47:55;101160.88;;;16.81;100.00
2673;BME280;1346;51.558;6.996;2022-08-21T01:50:22;101151.63;;;16.76;100.00
2673;BME280;1346;51.558;6.996;2022-08-21T01:52:50;101156.38;;;16.74;100.00
2673;BME280;1346;51.558;6.996;2022-08-21T01:55:19;101154.41;;;16.68;100.00
2673;BME280;1346;51.558;6.996;2022-08-21T01:57:48;101145.81;;;16.64;100.00
2673;BME280;1346;51.558;6.996;2022-08-21T02:00:20;101148.03;;;16.61;100.00
2673;BME280;1346;51.558;6.996;2022-08-21T02:02:49;101142.94;;;16.58;100.00
2673;BME280;1346;51.558;6.996;2022-08-21T02:05:17;101148.72;;;16.55;100.00
2673;BME280;1346;51.558;6.996;2022-08-21T02:07:48;101145.72;;;16.50;100.00
2673;BME280;1346;51.558;6.996;2022-08-21T02:10:21;101141.53;;;16.47;100.00
2673;BME280;1346;51.558;6.996;2022-08-21T02:12:50;101150.66;;;16.46;100.00
2673;BME280;1346;51.558;6.996;2022-08-21T02:15:17;101144.72;;;16.43;100.00
2673;BME280;1346;51.558;6.996;2022-08-21T02:17:49;101141.53;;;16.39;100.00
2673;BME280;1346;51.558;6.996;2022-08-21T02:20:22;101135.66;;;16.36;100.00
2673;BME280;1346;51.558;6.996;2022-08-21T02:22:49;101138.72;;;16.33;100.00
2673;BME280;1346;51.558;6.996;2022-08-21T02:25:17;101131.81;;;16.30;100.00
2673;BME280;1346;51.558;6.996;2022-08-21T02:27:46;101132.16;;;16.27;100.00
2673;BME280;1346;51.558;6.996;2022-08-21T02:30:18;101140.63;;;16.24;100.00
2673;BME280;1346;51.558;6.996;2022-08-21T02:32:45;101127.66;;;16.20;100.00
2673;BME280;1346;51.558;6.996;2022-08-21T02:35:13;101133.44;;;16.17;100.00
2673;BME280;1346;51.558;6.996;2022-08-21T02:37:46;101127.53;;;16.13;100.00
2673;BME280;1346;51.558;6.996;2022-08-21T02:40:15;101129.75;;;16.10;100.00
2673;BME280;1346;51.558;6.996;2022-08-21T02:42:43;101134.31;;;16.09;100.00
2673;BME280;1346;51.558;6.996;2022-08-21T02:45:11;101129.09;;;16.08;100.00
2673;BME280;1346;51.558;6.996;2022-08-21T02:47:40;101128.91;;;16.09;100.00
2673;BME280;1346;51.558;6.996;2022-08-21T02:50:13;101128.91;;;16.09;100.00
2673;BME280;1346;51.558;6.996;2022-08-21T02:52:40;101136.84;;;16.11;100.00
2673;BME280;1346;51.558;6.996;2022-08-21T02:55:07;101135.16;;;16.10;100.00
2673;BME280;1346;51.558;6.996;2022-08-21T02:57:33;101129.94;;;16.08;100.00
2673;BME280;1346;51.558;6.996;2022-08-21T03:00:02;101135.16;;;16.10;100.00
2673;BME280;1346;51.558;6.996;2022-08-21T03:02:30;101137.50;;;16.13;100.00
2673;BME280;1346;51.558;6.996;2022-08-21T03:04:58;101134.13;;;16.11;100.00
2673;BME280;1346;51.558;6.996;2022-08-21T03:07:25;101134.50;;;16.08;100.00
2673;BME280;1346;51.558;6.996;2022-08-21T03:09:52;101137.56;;;16.05;100.00
2673;BME280;1346;51.558;6.996;2022-08-21T03:12:19;101128.78;;;16.03;100.00
2673;BME280;1346;51.558;6.996;2022-08-21T03:14:46;101123.19;;;16.04;100.00
2673;BME280;1346;51.558;6.996;2022-08-21T03:17:12;101129.44;;;16.05;100.00
2673;BME280;1346;51.558;6.996;2022-08-21T03:19:39;101123.38;;;16.03;100.00
2673;BME280;1346;51.558;6.996;2022-08-21T03:22:07;101127.75;;;16.04;100.00
2673;BME280;1346;51.558;6.996;2022-08-21T03:24:34;101128.78;;;16.03;100.00
2673;BME280;1346;51.558;6.996;2022-08-21T03:27:02;101135.03;;;16.03;100.00
2673;BME280;1346;51.558;6.996;2022-08-21T03:29:29;101130.44;;;16.04;100.00
2673;BME280;1346;51.558;6.996;2022-08-21T03:31:56;101124.06;;;16.05;100.00
2673;BME280;1346;51.558;6.996;2022-08-21T03:34:23;101126.75;;;16.05;100.00
2673;BME280;1346;51.558;6.996;2022-08-21T03:36:50;101125.72;;;16.06;100.00
2673;BME280;1346;51.558;6.996;2022-08-21T03:39:18;101124.06;;;16.05;100.00
2673;BME280;1346;51.558;6.996;2022-08-21T03:41:45;101129.94;;;16.08;100.00
2673;BME280;1346;51.558;6.996;2022-08-21T03:44:13;101129.41;;;16.13;100.00
2673;BME280;1346;51.558;6.996;2022-08-21T03:46:40;101124.84;;;16.13;100.00
2673;BME280;1346;51.558;6.996;2022-08-21T03:49:07;101130.44;;;16.12;100.00
2673;BME280;1346;51.558;6.996;2022-08-21T03:51:34;101124.53;;;16.08;100.00
2673;BME280;1346;51.558;6.996;2022-08-21T03:54:01;101127.41;;;16.07;100.00
2673;BME280;1346;51.558;6.996;2022-08-21T03:56:30;101120.69;;;16.03;100.00
2673;BME280;1346;51.558;6.996;2022-08-21T03:58:57;101119.34;;;15.99;100.00
2673;BME280;1346;51.558;6.996;2022-08-21T04:01:24;101128.84;;;15.95;100.00
2673;BME280;1346;51.558;6.996;2022-08-21T04:03:51;101126.81;;;15.89;100.00
2673;BME280;1346;51.558;6.996;2022-08-21T04:06:18;101133.94;;;15.82;100.00
2673;BME280;1346;51.558;6.996;2022-08-21T04:08:45;101138.03;;;15.78;100.00
2673;BME280;1346;51.558;6.996;2022-08-21T04:11:12;101135.84;;;15.73;100.00
2673;BME280;1346;51.558;6.996;2022-08-21T04:13:41;101140.13;;;15.67;100.00
2673;BME280;1346;51.558;6.996;2022-08-21T04:16:08;101148.91;;;15.61;100.00
2673;BME280;1346;51.558;6.996;2022-08-21T04:18:35;101142.38;;;15.56;100.00
2673;BME280;1346;51.558;6.996;2022-08-21T04:21:03;101143.72;;;15.52;100.00
2673;BME280;1346;51.558;6.996;2022-08-21T04:23:30;101144.06;;;15.49;100.00
2673;BME280;1346;51.558;6.996;2022-08-21T04:25:58;101146.94;;;15.47;100.00
2673;BME280;1346;51.558;6.996;2022-08-21T04:28:26;101139.00;;;15.46;100.00
2673;BME280;1346;51.558;6.996;2022-08-21T04:30:56;101146.44;;;15.44;100.00
2673;BME280;1346;51.558;6.996;2022-08-21T04:33:23;101144.75;;;15.43;100.00
2673;BME280;1346;51.558;6.996;2022-08-21T04:35:50;101149.97;;;15.44;100.00
2673;BME280;1346;51.558;6.996;2022-08-21T04:38:18;101155.53;;;15.43;100.00
2673;BME280;1346;51.558;6.996;2022-08-21T04:40:45;101152.03;;;15.42;100.00
2673;BME280;1346;51.558;6.996;2022-08-21T04:43:12;101146.63;;;15.42;100.00
2673;BME280;1346;51.558;6.996;2022-08-21T04:45:43;101144.56;;;15.44;100.00
2673;BME280;1346;51.558;6.996;2022-08-21T04:48:14;101149.78;;;15.46;100.00
2673;BME280;1346;51.558;6.996;2022-08-21T04:50:45;101152.50;;;15.46;100.00
2673;BME280;1346;51.558;6.996;2022-08-21T04:53:17;101148.63;;;15.48;100.00
2673;BME280;1346;51.558;6.996;2022-08-21T04:55:45;101152.34;;;15.47;100.00
2673;BME280;1346;51.558;6.996;2022-08-21T04:58:16;101155.69;;;15.49;100.00
2673;BME280;1346;51.558;6.996;2022-08-21T05:00:45;101159.75;;;15.53;100.00
2673;BME280;1346;51.558;6.996;2022-08-21T05:03:14;101154.66;;;15.58;100.00
2673;BME280;1346;51.558;6.996;2022-08-21T05:05:43;101157.31;;;15.66;100.00
2673;BME280;1346;51.558;6.996;2022-08-21T05:08:16;101154.94;;;15.71;100.00
2673;BME280;1346;51.558;6.996;2022-08-21T05:10:45;101156.78;;;15.79;100.00
2673;BME280;1346;51.558;6.996;2022-08-21T05:13:12;101159.59;;;15.86;100.00
2673;BME280;1346;51.558;6.996;2022-08-21T05:15:40;101166.66;;;15.95;100.00
2673;BME280;1346;51.558;6.996;2022-08-21T05:18:07;101165.75;;;16.02;100.00
2673;BME280;1346;51.558;6.996;2022-08-21T05:20:36;101156.13;;;16.08;100.00
2673;BME280;1346;51.558;6.996;2022-08-21T05:23:07;101157.94;;;16.15;100.00
2673;BME280;1346;51.558;6.996;2022-08-21T05:25:35;101152.66;;;16.22;100.00
2673;BME280;1346;51.558;6.996;2022-08-21T05:28:03;101160.22;;;16.26;100.00
2673;BME280;1346;51.558;6.996;2022-08-21T05:30:30;101160.53;;;16.31;100.00
2673;BME280;1346;51.558;6.996;2022-08-21T05:32:58;101165.38;;;16.36;100.00
2673;BME280;1346;51.558;6.996;2022-08-21T05:35:26;101168.06;;;16.44;100.00
2673;BME280;1346;51.558;6.996;2022-08-21T05:37:55;101158.25;;;16.51;100.00
2673;BME280;1346;51.558;6.996;2022-08-21T05:40:23;101163.78;;;16.57;100.00
2673;BME280;1346;51.558;6.996;2022-08-21T05:42:51;101155.97;;;16.62;100.00
2673;BME280;1346;51.558;6.996;2022-08-21T05:45:19;101158.09;;;16.67;100.00
2673;BME280;1346;51.558;6.996;2022-08-21T05:47:46;101159.44;;;16.71;100.00
2673;BME280;1346;51.558;6.996;2022-08-21T05:50:13;101163.25;;;16.76;100.00
2673;BME280;1346;51.558;6.996;2022-08-21T05:52:40;101167.28;;;16.80;100.00
2673;BME280;1346;51.558;6.996;2022-08-21T05:55:09;101165.91;;;16.84;100.00
2673;BME280;1346;51.558;6.996;2022-08-21T05:57:38;101160.97;;;16.88;100.00
2673;BME280;1346;51.558;6.996;2022-08-21T06:00:08;101157.53;;;16.94;100.00
2673;BME280;1346;51.558;6.996;2022-08-21T06:02:38;101159.88;;;16.97;100.00
2673;BME280;1346;51.558;6.996;2022-08-21T06:05:05;101160.34;;;17.01;100.00
2673;BME280;1346;51.558;6.996;2022-08-21T06:07:32;101157.28;;;17.04;100.00
2673;BME280;1346;51.558;6.996;2022-08-21T06:09:59;101153.00;;;17.09;100.00
2673;BME280;1346;51.558;6.996;2022-08-21T06:12:27;101154.97;;;17.15;100.00
2673;BME280;1346;51.558;6.996;2022-08-21T06:14:54;101159.44;;;17.23;100.00
2673;BME280;1346;51.558;6.996;2022-08-21T06:17:22;101150.59;;;17.29;100.00
2673;BME280;1346;51.558;6.996;2022-08-21T06:19:52;101158.81;;;17.35;100.00
2673;BME280;1346;51.558;6.996;2022-08-21T06:22:20;101159.94;;;17.41;100.00
2673;BME280;1346;51.558;6.996;2022-08-21T06:24:48;101163.78;;;17.46;100.00
2673;BME280;1346;51.558;6.996;2022-08-21T06:27:15;101165.59;;;17.54;100.00
2673;BME280;1346;51.558;6.996;2022-08-21T06:29:44;101161.28;;;17.59;100.00
2673;BME280;1346;51.558;6.996;2022-08-21T06:32:12;101158.19;;;17.62;100.00
2673;BME280;1346;51.558;6.996;2022-08-21T06:34:40;101172.69;;;17.69;100.00
2673;BME280;1346;51.558;6.996;2022-08-21T06:37:08;101163.97;;;17.74;100.00
2673;BME280;1346;51.558;6.996;2022-08-21T06:39:35;101162.59;;;17.78;100.00
2673;BME280;1346;51.558;6.996;2022-08-21T06:42:03;101170.81;;;17.84;100.00
2673;BME280;1346;51.558;6.996;2022-08-21T06:44:31;101167.50;;;17.89;100.00
2673;BME280;1346;51.558;6.996;2022-08-21T06:46:59;101164.88;;;17.95;100.00
2673;BME280;1346;51.558;6.996;2022-08-21T06:49:26;101165.34;;;17.99;100.00
2673;BME280;1346;51.558;6.996;2022-08-21T06:51:53;101154.56;;;18.05;100.00
2673;BME280;1346;51.558;6.996;2022-08-21T06:54:20;101161.97;;;18.12;100.00
2673;BME280;1346;51.558;6.996;2022-08-21T06:56:47;101154.75;;;18.19;100.00
2673;BME280;1346;51.558;6.996;2022-08-21T06:59:13;101160.44;;;18.24;100.00
2673;BME280;1346;51.558;6.996;2022-08-21T07:01:41;101163.41;;;18.29;100.00
2673;BME280;1346;51.558;6.996;2022-08-21T07:04:09;101161.16;;;18.32;100.00
2673;BME280;1346;51.558;6.996;2022-08-21T07:06:36;101155.16;;;18.37;100.00
2673;BME280;1346;51.558;6.996;2022-08-21T07:09:03;101161.72;;;18.42;100.00
2673;BME280;1346;51.558;6.996;2022-08-21T07:11:30;101161.97;;;18.47;100.00
2673;BME280;1346;51.558;6.996;2022-08-21T07:13:57;101159.72;;;18.51;100.00
2673;BME280;1346;51.558;6.996;2022-08-21T07:16:24;101158.75;;;18.58;100.00
2673;BME280;1346;51.558;6.996;2022-08-21T07:18:51;101155.47;;;18.63;100.00
2673;BME280;1346;51.558;6.996;2022-08-21T07:21:20;101156.38;;;18.70;100.00
2673;BME280;1346;51.558;6.996;2022-08-21T07:23:49;101150.81;;;18.78;100.00
2673;BME280;1346;51.558;6.996;2022-08-21T07:26:20;101155.69;;;18.89;100.00
2673;BME280;1346;51.558;6.996;2022-08-21T07:28:47;101151.16;;;18.96;100.00
2673;BME280;1346;51.558;6.996;2022-08-21T07:31:17;101154.56;;;19.04;100.00
2673;BME280;1346;51.558;6.996;2022-08-21T07:33:46;101153.59;;;19.12;100.00
2673;BME280;1346;51.558;6.996;2022-08-21T07:36:13;101155.31;;;19.19;100.00
2673;BME280;1346;51.558;6.996;2022-08-21T07:38:42;101160.78;;;19.26;100.00
2673;BME280;1346;51.558;6.996;2022-08-21T07:41:15;101155.25;;;19.34;100.00
2673;BME280;1346;51.558;6.996;2022-08-21T07:43:42;101156.94;;;19.42;100.00
2673;BME280;1346;51.558;6.996;2022-08-21T07:46:09;101159.94;;;19.53;100.00
2673;BME280;1346;51.558;6.996;2022-08-21T07:48:36;101157.47;;;19.58;100.00
2673;BME280;1346;51.558;6.996;2022-08-21T07:51:09;101158.34;;;19.65;100.00
2673;BME280;1346;51.558;6.996;2022-08-21T07:53:37;101160.94;;;19.73;100.00
2673;BME280;1346;51.558;6.996;2022-08-21T07:56:06;101164.09;;;19.83;100.00
2673;BME280;1346;51.558;6.996;2022-08-21T07:58:34;101158.91;;;19.88;100.00
2673;BME280;1346;51.558;6.996;2022-08-21T08:01:01;101163.28;;;19.89;100.00
2673;BME280;1346;51.558;6.996;2022-08-21T08:03:28;101156.00;;;19.96;100.00
2673;BME280;1346;51.558;6.996;2022-08-21T08:05:55;101156.03;;;20.03;100.00
2673;BME280;1346;51.558;6.996;2022-08-21T08:08:22;101156.88;;;20.10;100.00
2673;BME280;1346;51.558;6.996;2022-08-21T08:10:49;101159.00;;;20.14;100.00
2673;BME280;1346;51.558;6.996;2022-08-21T08:13:17;101150.91;;;20.21;100.00
2673;BME280;1346;51.558;6.996;2022-08-21T08:15:44;101154.66;;;20.26;100.00
2673;BME280;1346;51.558;6.996;2022-08-21T08:18:11;101152.38;;;20.30;100.00
2673;BME280;1346;51.558;6.996;2022-08-21T08:20:39;101149.88;;;20.35;100.00
2673;BME280;1346;51.558;6.996;2022-08-21T08:23:06;101157.03;;;20.42;100.00
2673;BME280;1346;51.558;6.996;2022-08-21T08:25:33;101154.94;;;20.51;100.00
2673;BME280;1346;51.558;6.996;2022-08-21T08:28:00;101157.25;;;20.54;100.00
2673;BME280;1346;51.558;6.996;2022-08-21T08:30:28;101152.66;;;20.55;100.00
2673;BME280;1346;51.558;6.996;2022-08-21T08:32:55;101155.59;;;20.60;100.00
2673;BME280;1346;51.558;6.996;2022-08-21T08:35:23;101160.00;;;20.67;100.00
2673;BME280;1346;51.558;6.996;2022-08-21T08:37:51;101157.09;;;20.75;100.00
2673;BME280;1346;51.558;6.996;2022-08-21T08:40:22;101163.16;;;20.84;100.00
2673;BME280;1346;51.558;6.996;2022-08-21T08:42:52;101152.28;;;20.90;100.00
2673;BME280;1346;51.558;6.996;2022-08-21T08:45:21;101151.88;;;21.00;99.36
2673;BME280;1346;51.558;6.996;2022-08-21T08:47:55;101151.03;;;21.12;98.40
2673;BME280;1346;51.558;6.996;2022-08-21T08:50:42;101153.75;;;21.25;96.24
2673;BME280;1346;51.558;6.996;2022-08-21T08:53:14;101146.59;;;21.37;95.90
2673;BME280;1346;51.558;6.996;2022-08-21T08:55:45;101139.25;;;21.44;94.51
2673;BME280;1346;51.558;6.996;2022-08-21T08:58:18;101147.84;;;21.48;91.76
2673;BME280;1346;51.558;6.996;2022-08-21T09:00:49;101149.94;;;21.52;92.81
2673;BME280;1346;51.558;6.996;2022-08-21T09:03:16;101144.03;;;21.55;92.64
2673;BME280;1346;51.558;6.996;2022-08-21T09:05:48;101141.91;;;21.64;91.82
2673;BME280;1346;51.558;6.996;2022-08-21T09:08:43;101136.69;;;21.63;91.56
2673;BME280;1346;51.558;6.996;2022-08-21T09:11:23;101141.06;;;21.70;91.12
2673;BME280;1346;51.558;6.996;2022-08-21T09:14:01;101134.13;;;21.74;91.54
2673;BME280;1346;51.558;6.996;2022-08-21T09:16:40;101141.28;;;21.75;88.40
2673;BME280;1346;51.558;6.996;2022-08-21T09:19:26;101137.28;;;21.71;89.56
2673;BME280;1346;51.558;6.996;2022-08-21T09:22:06;101138.13;;;21.72;90.01
2673;BME280;1346;51.558;6.996;2022-08-21T09:24:47;101127.44;;;21.70;89.25
2673;BME280;1346;51.558;6.996;2022-08-21T09:27:19;101137.69;;;21.81;87.83
2673;BME280;1346;51.558;6.996;2022-08-21T09:29:51;101128.25;;;21.84;88.76
2673;BME280;1346;51.558;6.996;2022-08-21T09:32:22;101140.63;;;21.86;88.31
2673;BME280;1346;51.558;6.996;2022-08-21T09:34:59;101131.78;;;21.91;88.41
2673;BME280;1346;51.558;6.996;2022-08-21T09:37:30;101127.75;;;22.00;89.92
2673;BME280;1346;51.558;6.996;2022-08-21T09:39:58;101133.81;;;22.08;87.29
2673;BME280;1346;51.558;6.996;2022-08-21T09:42:29;101130.22;;;22.14;86.31
2673;BME280;1346;51.558;6.996;2022-08-21T09:45:18;101123.88;;;22.20;85.25
2673;BME280;1346;51.558;6.996;2022-08-21T09:47:45;101124.00;;;22.32;84.89
2673;BME280;1346;51.558;6.996;2022-08-21T09:50:16;101121.63;;;22.42;84.20
2673;BME280;1346;51.558;6.996;2022-08-21T09:52:48;101117.81;;;22.49;82.82
2673;BME280;1346;51.558;6.996;2022-08-21T09:55:21;101119.84;;;22.60;81.70
2673;BME280;1346;51.558;6.996;2022-08-21T09:58:07;101123.59;;;22.66;81.73
2673;BME280;1346;51.558;6.996;2022-08-21T10:00:36;101112.78;;;22.77;81.97
2673;BME280;1346;51.558;6.996;2022-08-21T10:03:13;101117.94;;;22.92;79.79
2673;BME280;1346;51.558;6.996;2022-08-21T10:05:53;101118.59;;;22.88;78.30
2673;BME280;1346;51.558;6.996;2022-08-21T10:08:24;101109.97;;;22.91;80.79
2673;BME280;1346;51.558;6.996;2022-08-21T10:10:56;101121.41;;;23.06;80.36
2673;BME280;1346;51.558;6.996;2022-08-21T10:13:40;101111.97;;;23.20;79.98
2673;BME280;1346;51.558;6.996;2022-08-21T10:16:27;101116.28;;;23.34;77.03
2673;BME280;1346;51.558;6.996;2022-08-21T10:19:06;101112.38;;;23.30;75.71
2673;BME280;1346;51.558;6.996;2022-08-21T10:21:46;101117.09;;;23.16;77.01
2673;BME280;1346;51.558;6.996;2022-08-21T10:24:33;101111.16;;;23.19;77.03
2673;BME280;1346;51.558;6.996;2022-08-21T10:27:14;101107.47;;;23.32;77.39
2673;BME280;1346;51.558;6.996;2022-08-21T10:29:53;101109.00;;;23.46;75.77
2673;BME280;1346;51.558;6.996;2022-08-21T10:32:37;101112.22;;;23.61;72.97
2673;BME280;1346;51.558;6.996;2022-08-21T10:35:13;101098.38;;;23.56;69.64
2673;BME280;1346;51.558;6.996;2022-08-21T10:38:00;101109.53;;;23.72;72.49
2673;BME280;1346;51.558;6.996;2022-08-21T10:40:37;101100.47;;;23.90;72.21
2673;BME280;1346;51.558;6.996;2022-08-21T10:43:16;101099.44;;;24.09;68.72
2673;BME280;1346;51.558;6.996;2022-08-21T10:45:59;101096.41;;;24.29;69.64
2673;BME280;1346;51.558;6.996;2022-08-21T10:48:33;101101.81;;;24.47;65.40
2673;BME280;1346;51.558;6.996;2022-08-21T10:51:10;101109.00;;;24.59;60.54
2673;BME280;1346;51.558;6.996;2022-08-21T10:53:50;101099.72;;;24.60;63.31
2673;BME280;1346;51.558;6.996;2022-08-21T10:56:26;101109.28;;;24.69;65.60
2673;BME280;1346;51.558;6.996;2022-08-21T10:59:09;101099.53;;;24.96;65.64
2673;BME280;1346;51.558;6.996;2022-08-21T11:01:47;101108.59;;;25.20;59.41
2673;BME280;1346;51.558;6.996;2022-08-21T11:04:20;101087.25;;;25.22;56.82
2673;BME280;1346;51.558;6.996;2022-08-21T11:06:58;101106.09;;;25.19;56.53
2673;BME280;1346;51.558;6.996;2022-08-21T11:09:27;101093.59;;;25.23;58.74
2673;BME280;1346;51.558;6.996;2022-08-21T11:12:03;101095.38;;;25.29;57.50
2673;BME280;1346;51.558;6.996;2022-08-21T11:14:47;101097.78;;;25.37;58.57
2673;BME280;1346;51.558;6.996;2022-08-21T11:17:18;101093.13;;;25.49;55.78
2673;BME280;1346;51.558;6.996;2022-08-21T11:19:54;101090.59;;;25.59;54.82
2673;BME280;1346;51.558;6.996;2022-08-21T11:22:33;101084.13;;;25.65;56.54
2673;BME280;1346;51.558;6.996;2022-08-21T11:25:07;101091.63;;;25.81;58.52
2673;BME280;1346;51.558;6.996;2022-08-21T11:27:43;101082.00;;;25.95;55.43
2673;BME280;1346;51.558;6.996;2022-08-21T11:30:13;101080.34;;;26.05;54.88
2673;BME280;1346;51.558;6.996;2022-08-21T11:32:55;101085.06;;;26.10;55.20
2673;BME280;1346;51.558;6.996;2022-08-21T11:35:33;101099.13;;;26.25;54.28
2673;BME280;1346;51.558;6.996;2022-08-21T11:38:20;101088.13;;;26.25;53.94
2673;BME280;1346;51.558;6.996;2022-08-21T11:41:09;101095.19;;;26.21;56.47
2673;BME280;1346;51.558;6.996;2022-08-21T11:43:43;101081.16;;;26.34;55.11
2673;BME280;1346;51.558;6.996;2022-08-21T11:46:25;101080.84;;;26.47;54.03
2673;BME280;1346;51.558;6.996;2022-08-21T11:49:06;101084.06;;;26.28;50.77
2673;BME280;1346;51.558;6.996;2022-08-21T11:51:45;101083.34;;;25.92;52.49
2673;BME280;1346;51.558;6.996;2022-08-21T11:54:22;101091.53;;;25.76;54.67
2673;BME280;1346;51.558;6.996;2022-08-21T11:56:57;101089.63;;;25.65;55.74
2673;BME280;1346;51.558;6.996;2022-08-21T11:59:36;101089.28;;;25.61;56.36
2673;BME280;1346;51.558;6.996;2022-08-21T12:02:10;101082.53;;;25.80;57.81
2673;BME280;1346;51.558;6.996;2022-08-21T12:04:45;101102.66;;;26.09;56.37
2673;BME280;1346;51.558;6.996;2022-08-21T12:07:17;101091.06;;;26.35;56.43
2673;BME280;1346;51.558;6.996;2022-08-21T12:09:54;101084.06;;;26.44;52.19
2673;BME280;1346;51.558;6.996;2022-08-21T12:12:26;101082.44;;;26.60;53.58
2673;BME280;1346;51.558;6.996;2022-08-21T12:15:25;101085.16;;;26.88;53.83
2673;BME280;1346;51.558;6.996;2022-08-21T12:17:57;101078.50;;;27.22;52.39
2673;BME280;1346;51.558;6.996;2022-08-21T12:20:40;101090.00;;;27.52;48.79
2673;BME280;1346;51.558;6.996;2022-08-21T12:23:24;101086.59;;;27.67;49.73
2673;BME280;1346;51.558;6.996;2022-08-21T12:26:13;101080.56;;;27.70;48.53
2673;BME280;1346;51.558;6.996;2022-08-21T12:28:43;101088.13;;;27.79;47.81
2673;BME280;1346;51.558;6.996;2022-08-21T12:31:25;101079.69;;;27.86;46.83
2673;BME280;1346;51.558;6.996;2022-08-21T12:34:00;101073.28;;;28.02;45.94
2673;BME280;1346;51.558;6.996;2022-08-21T12:36:41;101073.09;;;28.08;45.18
2673;BME280;1346;51.558;6.996;2022-08-21T12:39:14;101077.06;;;27.96;45.06
2673;BME280;1346;51.558;6.996;2022-08-21T12:41:48;101078.72;;;27.97;44.98
2673;BME280;1346;51.558;6.996;2022-08-21T12:44:22;101078.28;;;28.05;44.22
2673;BME280;1346;51.558;6.996;2022-08-21T12:46:58;101078.44;;;28.20;44.52
2673;BME280;1346;51.558;6.996;2022-08-21T12:49:31;101073.78;;;28.25;42.78
2673;BME280;1346;51.558;6.996;2022-08-21T12:52:07;101056.84;;;28.12;43.38
2673;BME280;1346;51.558;6.996;2022-08-21T12:54:42;101072.31;;;28.13;44.70
2673;BME280;1346;51.558;6.996;2022-08-21T12:57:19;101071.41;;;27.86;45.00
2673;BME280;1346;51.558;6.996;2022-08-21T12:59:53;101072.34;;;27.91;45.44
2673;BME280;1346;51.558;6.996;2022-08-21T13:02:26;101078.44;;;27.77;44.70
2673;BME280;1346;51.558;6.996;2022-08-21T13:04:55;101070.41;;;27.70;45.06
2673;BME280;1346;51.558;6.996;2022-08-21T13:07:27;101071.09;;;28.04;46.59
2673;BME280;1346;51.558;6.996;2022-08-21T13:09:59;101069.44;;;28.29;44.26
2673;BME280;1346;51.558;6.996;2022-08-21T13:12:28;101074.78;;;28.41;42.50
2673;BME280;1346;51.558;6.996;2022-08-21T13:14:59;101057.28;;;28.52;42.67
2673;BME280;1346;51.558;6.996;2022-08-21T13:17:32;101063.50;;;28.69;42.05
2673;BME280;1346;51.558;6.996;2022-08-21T13:20:08;101050.78;;;28.68;39.12
2673;BME280;1346;51.558;6.996;2022-08-21T13:22:41;101066.94;;;28.55;41.16
2673;BME280;1346;51.558;6.996;2022-08-21T13:25:11;101063.88;;;28.51;40.39